sensor_id;sensor_type;location;lat;lon;timestamp;P1;durP1;ratioP1;P2;durP2;ratioP2
2872;SDS011;1444;49.166;7.312;2024-02-21T00:01:32;17.53;;;10.00;;
2872;SDS011;1444;49.166;7.312;2024-02-21T00:04:05;27.73;;;8.93;;
2872;SDS011;1444;49.166;7.312;2024-02-21T00:06:32;16.63;;;8.67;;
2872;SDS011;1444;49.166;7.312;2024-02-21T00:09:01;16.03;;;8.13;;
2872;SDS011;1444;49.166;7.312;2024-02-21T00:11:27;22.87;;;9.03;;
2872;SDS011;1444;49.166;7.312;2024-02-21T00:13:54;19.60;;;8.50;;
2872;SDS011;1444;49.166;7.312;2024-02-21T00:16:21;17.63;;;7.70;;
2872;SDS011;1444;49.166;7.312;2024-02-21T00:18:48;23.03;;;8.40;;
2872;SDS011;1444;49.166;7.312;2024-02-21T00:21:15;18.90;;;8.13;;
2872;SDS011;1444;49.166;7.312;2024-02-21T00:23:43;27.97;;;8.60;;
2872;SDS011;1444;49.166;7.312;2024-02-21T00:26:12;18.97;;;9.17;;
2872;SDS011;1444;49.166;7.312;2024-02-21T00:28:40;16.00;;;7.90;;
2872;SDS011;1444;49.166;7.312;2024-02-21T00:31:07;24.50;;;7.03;;
2872;SDS011;1444;49.166;7.312;2024-02-21T00:33:34;16.60;;;8.40;;
2872;SDS011;1444;49.166;7.312;2024-02-21T00:36:01;17.20;;;8.50;;
2872;SDS011;1444;49.166;7.312;2024-02-21T00:38:27;22.37;;;8.80;;
2872;SDS011;1444;49.166;7.312;2024-02-21T00:40:57;18.60;;;7.63;;
2872;SDS011;1444;49.166;7.312;2024-02-21T00:43:25;21.60;;;8.20;;
2872;SDS011;1444;49.166;7.312;2024-02-21T00:45:52;18.63;;;7.60;;
2872;SDS011;1444;49.166;7.312;2024-02-21T00:48:18;21.53;;;8.27;;
2872;SDS011;1444;49.166;7.312;2024-02-21T00:50:45;18.67;;;8.23;;
2872;SDS011;1444;49.166;7.312;2024-02-21T00:53:12;12.50;;;7.90;;
2872;SDS011;1444;49.166;7.312;2024-02-21T00:55:39;16.03;;;8.47;;
2872;SDS011;1444;49.166;7.312;2024-02-21T00:58:06;32.30;;;10.13;;
2872;SDS011;1444;49.166;7.312;2024-02-21T01:00:34;13.30;;;6.27;;
2872;SDS011;1444;49.166;7.312;2024-02-21T01:03:01;22.50;;;7.80;;
2872;SDS011;1444;49.166;7.312;2024-02-21T01:05:28;19.20;;;8.00;;
2872;SDS011;1444;49.166;7.312;2024-02-21T01:07:55;13.37;;;7.50;;
2872;SDS011;1444;49.166;7.312;2024-02-21T01:10:22;18.57;;;7.77;;
2872;SDS011;1444;49.166;7.312;2024-02-21T01:12:49;24.00;;;8.20;;
2872;SDS011;1444;49.166;7.312;2024-02-21T01:15:16;15.80;;;7.47;;
2872;SDS011;1444;49.166;7.312;2024-02-21T01:17:45;17.70;;;7.93;;
2872;SDS011;1444;49.166;7.312;2024-02-21T01:20:11;13.93;;;7.10;;
2872;SDS011;1444;49.166;7.312;2024-02-21T01:22:38;18.90;;;8.33;;
2872;SDS011;1444;49.166;7.312;2024-02-21T01:25:05;16.37;;;8.80;;
2872;SDS011;1444;49.166;7.312;2024-02-21T01:27:34;17.90;;;7.67;;
2872;SDS011;1444;49.166;7.312;2024-02-21T01:30:00;15.83;;;9.40;;
2872;SDS011;1444;49.166;7.312;2024-02-21T01:32:27;24.20;;;9.03;;
2872;SDS011;1444;49.166;7.312;2024-02-21T01:34:55;19.30;;;8.00;;
2872;SDS011;1444;49.166;7.312;2024-02-21T01:37:22;19.97;;;9.50;;
2872;SDS011;1444;49.166;7.312;2024-02-21T01:39:49;35.37;;;9.17;;
2872;SDS011;1444;49.166;7.312;2024-02-21T01:42:16;23.30;;;9.13;;
2872;SDS011;1444;49.166;7.312;2024-02-21T01:44:42;30.03;;;11.37;;
2872;SDS011;1444;49.166;7.312;2024-02-21T01:47:08;20.70;;;9.80;;
2872;SDS011;1444;49.166;7.312;2024-02-21T01:49:38;22.47;;;8.50;;
2872;SDS011;1444;49.166;7.312;2024-02-21T01:52:07;18.80;;;8.37;;
2872;SDS011;1444;49.166;7.312;2024-02-21T01:54:34;15.50;;;8.60;;
2872;SDS011;1444;49.166;7.312;2024-02-21T01:57:01;18.77;;;9.50;;
2872;SDS011;1444;49.166;7.312;2024-02-21T01:59:28;20.03;;;7.23;;
2872;SDS011;1444;49.166;7.312;2024-02-21T02:01:55;15.43;;;7.93;;
2872;SDS011;1444;49.166;7.312;2024-02-21T02:04:22;16.30;;;7.67;;
2872;SDS011;1444;49.166;7.312;2024-02-21T02:06:51;27.20;;;6.63;;
2872;SDS011;1444;49.166;7.312;2024-02-21T02:09:22;19.50;;;8.03;;
2872;SDS011;1444;49.166;7.312;2024-02-21T02:11:49;20.13;;;5.77;;
2872;SDS011;1444;49.166;7.312;2024-02-21T02:14:16;22.83;;;6.37;;
2872;SDS011;1444;49.166;7.312;2024-02-21T02:16:46;11.63;;;7.10;;
2872;SDS011;1444;49.166;7.312;2024-02-21T02:19:13;19.73;;;7.67;;
2872;SDS011;1444;49.166;7.312;2024-02-21T02:21:42;34.37;;;8.63;;
2872;SDS011;1444;49.166;7.312;2024-02-21T02:24:13;20.03;;;8.20;;
2872;SDS011;1444;49.166;7.312;2024-02-21T02:26:40;18.03;;;7.13;;
2872;SDS011;1444;49.166;7.312;2024-02-21T02:29:07;22.40;;;7.10;;
2872;SDS011;1444;49.166;7.312;2024-02-21T02:31:34;17.00;;;7.13;;
2872;SDS011;1444;49.166;7.312;2024-02-21T02:34:02;15.67;;;6.97;;
2872;SDS011;1444;49.166;7.312;2024-02-21T02:36:29;23.00;;;8.20;;
2872;SDS011;1444;49.166;7.312;2024-02-21T02:38:56;10.93;;;6.53;;
2872;SDS011;1444;49.166;7.312;2024-02-21T02:41:24;24.73;;;7.47;;
2872;SDS011;1444;49.166;7.312;2024-02-21T02:43:51;22.70;;;8.47;;
2872;SDS011;1444;49.166;7.312;2024-02-21T02:46:18;23.40;;;7.00;;
2872;SDS011;1444;49.166;7.312;2024-02-21T02:48:45;18.40;;;7.43;;
2872;SDS011;1444;49.166;7.312;2024-02-21T02:51:12;16.37;;;7.73;;
2872;SDS011;1444;49.166;7.312;2024-02-21T02:53:39;15.57;;;6.77;;
2872;SDS011;1444;49.166;7.312;2024-02-21T02:56:05;24.07;;;7.77;;
2872;SDS011;1444;49.166;7.312;2024-02-21T02:58:34;10.10;;;6.20;;
2872;SDS011;1444;49.166;7.312;2024-02-21T03:01:01;16.57;;;6.93;;
2872;SDS011;1444;49.166;7.312;2024-02-21T03:03:27;29.00;;;7.30;;
2872;SDS011;1444;49.166;7.312;2024-02-21T03:05:54;15.67;;;5.30;;
2872;SDS011;1444;49.166;7.312;2024-02-21T03:08:21;18.00;;;7.80;;
2872;SDS011;1444;49.166;7.312;2024-02-21T03:10:48;21.70;;;7.80;;
2872;SDS011;1444;49.166;7.312;2024-02-21T03:13:15;20.60;;;9.10;;
2872;SDS011;1444;49.166;7.312;2024-02-21T03:15:43;32.77;;;8.43;;
2872;SDS011;1444;49.166;7.312;2024-02-21T03:18:10;27.87;;;7.83;;
2872;SDS011;1444;49.166;7.312;2024-02-21T03:20:37;30.93;;;7.53;;
2872;SDS011;1444;49.166;7.312;2024-02-21T03:23:03;36.90;;;8.07;;
2872;SDS011;1444;49.166;7.312;2024-02-21T03:25:30;20.53;;;8.97;;
2872;SDS011;1444;49.166;7.312;2024-02-21T03:27:57;14.63;;;7.17;;
2872;SDS011;1444;49.166;7.312;2024-02-21T03:30:24;22.60;;;7.00;;
2872;SDS011;1444;49.166;7.312;2024-02-21T03:32:52;22.13;;;6.90;;
2872;SDS011;1444;49.166;7.312;2024-02-21T03:35:19;15.23;;;7.33;;
2872;SDS011;1444;49.166;7.312;2024-02-21T03:37:46;12.50;;;6.43;;
2872;SDS011;1444;49.166;7.312;2024-02-21T03:40:12;21.57;;;6.47;;
2872;SDS011;1444;49.166;7.312;2024-02-21T03:42:39;17.73;;;7.93;;
2872;SDS011;1444;49.166;7.312;2024-02-21T03:45:07;20.27;;;7.60;;
2872;SDS011;1444;49.166;7.312;2024-02-21T03:47:34;15.90;;;7.70;;
2872;SDS011;1444;49.166;7.312;2024-02-21T03:50:03;12.40;;;7.67;;
2872;SDS011;1444;49.166;7.312;2024-02-21T03:52:30;27.47;;;8.03;;
2872;SDS011;1444;49.166;7.312;2024-02-21T03:54:57;16.60;;;7.77;;
2872;SDS011;1444;49.166;7.312;2024-02-21T03:57:24;32.97;;;9.00;;
2872;SDS011;1444;49.166;7.312;2024-02-21T03:59:51;16.33;;;6.90;;
2872;SDS011;1444;49.166;7.312;2024-02-21T04:02:18;14.97;;;8.30;;
2872;SDS011;1444;49.166;7.312;2024-02-21T04:04:44;22.87;;;7.60;;
2872;SDS011;1444;49.166;7.312;2024-02-21T04:07:14;24.57;;;6.10;;
2872;SDS011;1444;49.166;7.312;2024-02-21T04:09:41;18.90;;;7.80;;
2872;SDS011;1444;49.166;7.312;2024-02-21T04:12:08;11.63;;;5.87;;
2872;SDS011;1444;49.166;7.312;2024-02-21T04:14:36;16.97;;;6.93;;
2872;SDS011;1444;49.166;7.312;2024-02-21T04:17:02;11.50;;;6.30;;
2872;SDS011;1444;49.166;7.312;2024-02-21T04:19:30;24.50;;;7.53;;
2872;SDS011;1444;49.166;7.312;2024-02-21T04:21:57;17.80;;;6.53;;
2872;SDS011;1444;49.166;7.312;2024-02-21T04:24:26;10.20;;;6.03;;
2872;SDS011;1444;49.166;7.312;2024-02-21T04:26:53;20.03;;;6.57;;
2872;SDS011;1444;49.166;7.312;2024-02-21T04:29:19;23.20;;;8.50;;
2872;SDS011;1444;49.166;7.312;2024-02-21T04:31:46;26.67;;;6.20;;
2872;SDS011;1444;49.166;7.312;2024-02-21T04:34:13;18.83;;;6.63;;
2872;SDS011;1444;49.166;7.312;2024-02-21T04:36:40;21.07;;;7.73;;
2872;SDS011;1444;49.166;7.312;2024-02-21T04:39:08;16.67;;;6.60;;
2872;SDS011;1444;49.166;7.312;2024-02-21T04:41:37;19.23;;;7.40;;
2872;SDS011;1444;49.166;7.312;2024-02-21T04:44:04;11.30;;;6.00;;
2872;SDS011;1444;49.166;7.312;2024-02-21T04:46:31;18.97;;;6.10;;
2872;SDS011;1444;49.166;7.312;2024-02-21T04:48:58;23.17;;;7.87;;
2872;SDS011;1444;49.166;7.312;2024-02-21T04:51:25;13.17;;;6.13;;
2872;SDS011;1444;49.166;7.312;2024-02-21T04:53:52;21.00;;;7.17;;
2872;SDS011;1444;49.166;7.312;2024-02-21T04:56:19;13.50;;;7.73;;
2872;SDS011;1444;49.166;7.312;2024-02-21T04:58:47;12.67;;;7.00;;
2872;SDS011;1444;49.166;7.312;2024-02-21T05:01:14;16.10;;;6.97;;
2872;SDS011;1444;49.166;7.312;2024-02-21T05:03:42;17.27;;;7.67;;
2872;SDS011;1444;49.166;7.312;2024-02-21T05:06:09;30.43;;;8.30;;
2872;SDS011;1444;49.166;7.312;2024-02-21T05:08:37;29.27;;;7.73;;
2872;SDS011;1444;49.166;7.312;2024-02-21T05:11:03;23.53;;;7.40;;
2872;SDS011;1444;49.166;7.312;2024-02-21T05:13:30;18.90;;;6.83;;
2872;SDS011;1444;49.166;7.312;2024-02-21T05:15:58;28.30;;;8.17;;
2872;SDS011;1444;49.166;7.312;2024-02-21T05:18:26;11.03;;;6.40;;
2872;SDS011;1444;49.166;7.312;2024-02-21T05:20:53;13.43;;;6.43;;
2872;SDS011;1444;49.166;7.312;2024-02-21T05:23:20;11.60;;;6.43;;
2872;SDS011;1444;49.166;7.312;2024-02-21T05:25:47;10.77;;;6.60;;
2872;SDS011;1444;49.166;7.312;2024-02-21T05:28:13;14.23;;;6.17;;
2872;SDS011;1444;49.166;7.312;2024-02-21T05:30:40;13.07;;;7.40;;
2872;SDS011;1444;49.166;7.312;2024-02-21T05:33:09;14.90;;;6.83;;
2872;SDS011;1444;49.166;7.312;2024-02-21T05:35:37;17.20;;;5.87;;
2872;SDS011;1444;49.166;7.312;2024-02-21T05:38:04;11.27;;;5.80;;
2872;SDS011;1444;49.166;7.312;2024-02-21T05:40:36;21.57;;;6.97;;
2872;SDS011;1444;49.166;7.312;2024-02-21T05:43:03;14.83;;;6.57;;
2872;SDS011;1444;49.166;7.312;2024-02-21T05:45:30;11.27;;;6.47;;
2872;SDS011;1444;49.166;7.312;2024-02-21T05:47:57;25.30;;;7.10;;
2872;SDS011;1444;49.166;7.312;2024-02-21T05:50:26;27.33;;;7.13;;
2872;SDS011;1444;49.166;7.312;2024-02-21T05:52:54;16.70;;;7.07;;
2872;SDS011;1444;49.166;7.312;2024-02-21T05:55:21;13.37;;;7.53;;
2872;SDS011;1444;49.166;7.312;2024-02-21T05:57:48;10.80;;;6.90;;
2872;SDS011;1444;49.166;7.312;2024-02-21T06:00:16;16.20;;;6.73;;
2872;SDS011;1444;49.166;7.312;2024-02-21T06:02:43;18.33;;;7.80;;
2872;SDS011;1444;49.166;7.312;2024-02-21T06:05:09;15.67;;;6.20;;
2872;SDS011;1444;49.166;7.312;2024-02-21T06:07:38;18.37;;;6.70;;
2872;SDS011;1444;49.166;7.312;2024-02-21T06:10:06;18.23;;;6.07;;
2872;SDS011;1444;49.166;7.312;2024-02-21T06:12:34;15.13;;;6.83;;
2872;SDS011;1444;49.166;7.312;2024-02-21T06:15:00;20.93;;;7.10;;
2872;SDS011;1444;49.166;7.312;2024-02-21T06:17:27;14.77;;;6.90;;
2872;SDS011;1444;49.166;7.312;2024-02-21T06:19:54;18.13;;;6.60;;
2872;SDS011;1444;49.166;7.312;2024-02-21T06:22:21;21.93;;;6.60;;
2872;SDS011;1444;49.166;7.312;2024-02-21T06:24:49;14.60;;;6.40;;
2872;SDS011;1444;49.166;7.312;2024-02-21T06:27:16;12.60;;;6.13;;
2872;SDS011;1444;49.166;7.312;2024-02-21T06:29:43;21.67;;;6.57;;
2872;SDS011;1444;49.166;7.312;2024-02-21T06:32:10;16.77;;;6.20;;
2872;SDS011;1444;49.166;7.312;2024-02-21T06:34:37;14.47;;;6.70;;
2872;SDS011;1444;49.166;7.312;2024-02-21T06:37:04;12.60;;;6.60;;
2872;SDS011;1444;49.166;7.312;2024-02-21T06:39:31;9.80;;;6.07;;
2872;SDS011;1444;49.166;7.312;2024-02-21T06:42:00;12.27;;;6.10;;
2872;SDS011;1444;49.166;7.312;2024-02-21T06:44:27;22.50;;;7.80;;
2872;SDS011;1444;49.166;7.312;2024-02-21T06:46:54;20.50;;;8.40;;
2872;SDS011;1444;49.166;7.312;2024-02-21T06:49:21;26.43;;;7.90;;
2872;SDS011;1444;49.166;7.312;2024-02-21T06:51:48;16.53;;;7.33;;
2872;SDS011;1444;49.166;7.312;2024-02-21T06:54:15;17.20;;;6.50;;
2872;SDS011;1444;49.166;7.312;2024-02-21T06:56:41;17.50;;;7.30;;
2872;SDS011;1444;49.166;7.312;2024-02-21T06:59:10;18.53;;;7.07;;
2872;SDS011;1444;49.166;7.312;2024-02-21T07:01:40;17.20;;;7.60;;
2872;SDS011;1444;49.166;7.312;2024-02-21T07:04:11;8.00;;;5.50;;
2872;SDS011;1444;49.166;7.312;2024-02-21T07:06:38;14.20;;;6.40;;
2872;SDS011;1444;49.166;7.312;2024-02-21T07:09:05;5.70;;;4.60;;
2872;SDS011;1444;49.166;7.312;2024-02-21T07:11:32;13.50;;;5.80;;
2872;SDS011;1444;49.166;7.312;2024-02-21T07:13:58;16.77;;;6.40;;
2872;SDS011;1444;49.166;7.312;2024-02-21T07:16:27;18.63;;;5.47;;
2872;SDS011;1444;49.166;7.312;2024-02-21T07:18:55;14.80;;;5.93;;
2872;SDS011;1444;49.166;7.312;2024-02-21T07:21:21;17.33;;;7.83;;
2872;SDS011;1444;49.166;7.312;2024-02-21T07:23:49;39.67;;;6.93;;
2872;SDS011;1444;49.166;7.312;2024-02-21T07:26:16;13.07;;;6.77;;
2872;SDS011;1444;49.166;7.312;2024-02-21T07:28:42;12.37;;;6.10;;
2872;SDS011;1444;49.166;7.312;2024-02-21T07:31:09;16.47;;;6.70;;
2872;SDS011;1444;49.166;7.312;2024-02-21T07:33:37;12.23;;;5.60;;
2872;SDS011;1444;49.166;7.312;2024-02-21T07:36:05;14.80;;;6.70;;
2872;SDS011;1444;49.166;7.312;2024-02-21T07:38:33;19.97;;;6.23;;
2872;SDS011;1444;49.166;7.312;2024-02-21T07:41:00;17.90;;;6.60;;
2872;SDS011;1444;49.166;7.312;2024-02-21T07:43:27;19.53;;;7.60;;
2872;SDS011;1444;49.166;7.312;2024-02-21T07:45:54;11.30;;;5.93;;
2872;SDS011;1444;49.166;7.312;2024-02-21T07:48:21;23.10;;;7.20;;
2872;SDS011;1444;49.166;7.312;2024-02-21T07:50:51;16.57;;;7.80;;
2872;SDS011;1444;49.166;7.312;2024-02-21T07:53:19;20.70;;;7.80;;
2872;SDS011;1444;49.166;7.312;2024-02-21T07:55:46;21.13;;;9.70;;
2872;SDS011;1444;49.166;7.312;2024-02-21T07:58:14;25.07;;;7.50;;
2872;SDS011;1444;49.166;7.312;2024-02-21T08:00:40;16.60;;;6.67;;
2872;SDS011;1444;49.166;7.312;2024-02-21T08:03:07;12.80;;;6.87;;
2872;SDS011;1444;49.166;7.312;2024-02-21T08:05:34;18.10;;;6.47;;
2872;SDS011;1444;49.166;7.312;2024-02-21T08:08:03;22.27;;;6.73;;
2872;SDS011;1444;49.166;7.312;2024-02-21T08:10:30;11.70;;;6.80;;
2872;SDS011;1444;49.166;7.312;2024-02-21T08:12:57;14.97;;;6.00;;
2872;SDS011;1444;49.166;7.312;2024-02-21T08:15:24;10.10;;;5.50;;
2872;SDS011;1444;49.166;7.312;2024-02-21T08:17:54;8.00;;;6.10;;
2872;SDS011;1444;49.166;7.312;2024-02-21T08:20:24;16.30;;;6.77;;
2872;SDS011;1444;49.166;7.312;2024-02-21T08:22:51;14.60;;;6.00;;
2872;SDS011;1444;49.166;7.312;2024-02-21T08:25:19;11.93;;;5.90;;
2872;SDS011;1444;49.166;7.312;2024-02-21T08:27:46;13.60;;;5.60;;
2872;SDS011;1444;49.166;7.312;2024-02-21T08:30:13;15.13;;;6.30;;
2872;SDS011;1444;49.166;7.312;2024-02-21T08:32:40;21.87;;;6.47;;
2872;SDS011;1444;49.166;7.312;2024-02-21T08:35:07;12.63;;;6.27;;
2872;SDS011;1444;49.166;7.312;2024-02-21T08:37:35;7.90;;;6.13;;
2872;SDS011;1444;49.166;7.312;2024-02-21T08:40:02;17.83;;;7.47;;
2872;SDS011;1444;49.166;7.312;2024-02-21T08:42:34;21.63;;;5.00;;
2872;SDS011;1444;49.166;7.312;2024-02-21T08:45:01;8.77;;;5.60;;
2872;SDS011;1444;49.166;7.312;2024-02-21T08:47:28;10.13;;;5.30;;
2872;SDS011;1444;49.166;7.312;2024-02-21T08:49:55;6.37;;;5.00;;
2872;SDS011;1444;49.166;7.312;2024-02-21T08:52:22;15.10;;;5.87;;
2872;SDS011;1444;49.166;7.312;2024-02-21T08:54:49;7.87;;;5.27;;
2872;SDS011;1444;49.166;7.312;2024-02-21T08:57:18;10.40;;;6.30;;
2872;SDS011;1444;49.166;7.312;2024-02-21T08:59:46;8.73;;;5.13;;
2872;SDS011;1444;49.166;7.312;2024-02-21T09:02:13;13.90;;;6.90;;
2872;SDS011;1444;49.166;7.312;2024-02-21T09:04:41;7.60;;;4.67;;
2872;SDS011;1444;49.166;7.312;2024-02-21T09:07:08;14.30;;;4.60;;
2872;SDS011;1444;49.166;7.312;2024-02-21T09:09:35;13.53;;;6.43;;
2872;SDS011;1444;49.166;7.312;2024-02-21T09:12:04;14.07;;;4.90;;
2872;SDS011;1444;49.166;7.312;2024-02-21T09:14:32;12.07;;;4.20;;
2872;SDS011;1444;49.166;7.312;2024-02-21T09:17:00;15.03;;;5.20;;
2872;SDS011;1444;49.166;7.312;2024-02-21T09:19:27;12.40;;;4.70;;
2872;SDS011;1444;49.166;7.312;2024-02-21T09:21:54;13.70;;;5.30;;
2872;SDS011;1444;49.166;7.312;2024-02-21T09:24:21;11.83;;;5.53;;
2872;SDS011;1444;49.166;7.312;2024-02-21T09:26:48;6.87;;;3.53;;
2872;SDS011;1444;49.166;7.312;2024-02-21T09:29:15;9.57;;;3.40;;
2872;SDS011;1444;49.166;7.312;2024-02-21T09:31:42;7.93;;;4.43;;
2872;SDS011;1444;49.166;7.312;2024-02-21T09:34:10;14.27;;;5.83;;
2872;SDS011;1444;49.166;7.312;2024-02-21T09:36:37;12.00;;;5.53;;
2872;SDS011;1444;49.166;7.312;2024-02-21T09:39:05;10.07;;;4.23;;
2872;SDS011;1444;49.166;7.312;2024-02-21T09:41:32;18.00;;;4.27;;
2872;SDS011;1444;49.166;7.312;2024-02-21T09:44:05;19.23;;;5.47;;
2872;SDS011;1444;49.166;7.312;2024-02-21T09:46:36;6.70;;;3.00;;
2872;SDS011;1444;49.166;7.312;2024-02-21T09:49:12;19.33;;;4.97;;
2872;SDS011;1444;49.166;7.312;2024-02-21T09:51:51;8.07;;;4.30;;
2872;SDS011;1444;49.166;7.312;2024-02-21T09:54:20;15.80;;;5.80;;
2872;SDS011;1444;49.166;7.312;2024-02-21T09:56:47;14.77;;;5.23;;
2872;SDS011;1444;49.166;7.312;2024-02-21T09:59:14;14.90;;;5.50;;
2872;SDS011;1444;49.166;7.312;2024-02-21T10:01:42;12.27;;;4.27;;
2872;SDS011;1444;49.166;7.312;2024-02-21T10:04:11;13.53;;;4.27;;
2872;SDS011;1444;49.166;7.312;2024-02-21T10:06:37;11.17;;;5.10;;
2872;SDS011;1444;49.166;7.312;2024-02-21T10:09:05;17.43;;;4.57;;
2872;SDS011;1444;49.166;7.312;2024-02-21T10:11:32;14.93;;;4.83;;
2872;SDS011;1444;49.166;7.312;2024-02-21T10:14:04;13.43;;;4.73;;
2872;SDS011;1444;49.166;7.312;2024-02-21T10:16:32;20.47;;;6.43;;
2872;SDS011;1444;49.166;7.312;2024-02-21T10:18:59;15.30;;;5.67;;
2872;SDS011;1444;49.166;7.312;2024-02-21T10:21:27;13.83;;;5.40;;
2872;SDS011;1444;49.166;7.312;2024-02-21T10:23:54;16.83;;;4.77;;
2872;SDS011;1444;49.166;7.312;2024-02-21T10:26:21;9.10;;;4.27;;
2872;SDS011;1444;49.166;7.312;2024-02-21T10:28:48;6.67;;;4.33;;
2872;SDS011;1444;49.166;7.312;2024-02-21T10:31:23;6.87;;;3.80;;
2872;SDS011;1444;49.166;7.312;2024-02-21T10:33:53;9.17;;;4.53;;
2872;SDS011;1444;49.166;7.312;2024-02-21T10:36:21;25.13;;;5.63;;
2872;SDS011;1444;49.166;7.312;2024-02-21T10:38:50;11.80;;;4.23;;
2872;SDS011;1444;49.166;7.312;2024-02-21T10:41:18;11.33;;;4.00;;
2872;SDS011;1444;49.166;7.312;2024-02-21T10:43:49;10.70;;;4.00;;
2872;SDS011;1444;49.166;7.312;2024-02-21T10:46:20;8.70;;;2.67;;
2872;SDS011;1444;49.166;7.312;2024-02-21T10:48:48;7.87;;;3.93;;
2872;SDS011;1444;49.166;7.312;2024-02-21T10:51:24;12.23;;;5.07;;
2872;SDS011;1444;49.166;7.312;2024-02-21T10:53:58;4.23;;;2.73;;
2872;SDS011;1444;49.166;7.312;2024-02-21T10:56:35;12.33;;;6.00;;
2872;SDS011;1444;49.166;7.312;2024-02-21T10:59:06;8.60;;;4.27;;
2872;SDS011;1444;49.166;7.312;2024-02-21T11:01:34;13.77;;;6.77;;
2872;SDS011;1444;49.166;7.312;2024-02-21T11:04:01;20.43;;;4.40;;
2872;SDS011;1444;49.166;7.312;2024-02-21T11:06:30;14.27;;;4.73;;
2872;SDS011;1444;49.166;7.312;2024-02-21T11:09:03;7.63;;;4.60;;
2872;SDS011;1444;49.166;7.312;2024-02-21T11:11:32;15.60;;;5.00;;
2872;SDS011;1444;49.166;7.312;2024-02-21T11:14:07;9.20;;;4.50;;
2872;SDS011;1444;49.166;7.312;2024-02-21T11:16:35;12.03;;;5.83;;
2872;SDS011;1444;49.166;7.312;2024-02-21T11:19:04;17.90;;;5.03;;
2872;SDS011;1444;49.166;7.312;2024-02-21T11:21:32;7.43;;;4.07;;
2872;SDS011;1444;49.166;7.312;2024-02-21T11:24:00;14.77;;;5.13;;
2872;SDS011;1444;49.166;7.312;2024-02-21T11:26:29;15.57;;;5.70;;
2872;SDS011;1444;49.166;7.312;2024-02-21T11:28:57;8.30;;;4.40;;
2872;SDS011;1444;49.166;7.312;2024-02-21T11:31:24;21.07;;;5.23;;
2872;SDS011;1444;49.166;7.312;2024-02-21T11:33:53;11.10;;;4.60;;
2872;SDS011;1444;49.166;7.312;2024-02-21T11:36:26;12.93;;;4.40;;
2872;SDS011;1444;49.166;7.312;2024-02-21T11:38:54;18.00;;;3.33;;
2872;SDS011;1444;49.166;7.312;2024-02-21T11:41:22;8.57;;;3.93;;
2872;SDS011;1444;49.166;7.312;2024-02-21T11:43:49;14.67;;;4.00;;
2872;SDS011;1444;49.166;7.312;2024-02-21T11:46:16;11.97;;;3.60;;
2872;SDS011;1444;49.166;7.312;2024-02-21T11:48:44;12.27;;;4.07;;
2872;SDS011;1444;49.166;7.312;2024-02-21T11:51:20;11.50;;;4.43;;
2872;SDS011;1444;49.166;7.312;2024-02-21T11:53:50;6.27;;;3.63;;
2872;SDS011;1444;49.166;7.312;2024-02-21T11:56:17;13.50;;;4.70;;
2872;SDS011;1444;49.166;7.312;2024-02-21T11:58:46;26.07;;;6.27;;
2872;SDS011;1444;49.166;7.312;2024-02-21T12:01:13;20.73;;;5.33;;
2872;SDS011;1444;49.166;7.312;2024-02-21T12:03:40;15.47;;;5.90;;
2872;SDS011;1444;49.166;7.312;2024-02-21T12:06:14;17.07;;;5.87;;
2872;SDS011;1444;49.166;7.312;2024-02-21T12:08:44;8.67;;;4.37;;
2872;SDS011;1444;49.166;7.312;2024-02-21T12:11:20;6.27;;;3.97;;
2872;SDS011;1444;49.166;7.312;2024-02-21T12:13:59;11.17;;;4.60;;
2872;SDS011;1444;49.166;7.312;2024-02-21T12:16:28;9.33;;;4.47;;
2872;SDS011;1444;49.166;7.312;2024-02-21T12:18:55;12.50;;;4.70;;
2872;SDS011;1444;49.166;7.312;2024-02-21T12:21:25;14.93;;;3.60;;
2872;SDS011;1444;49.166;7.312;2024-02-21T12:23:53;15.77;;;4.20;;
2872;SDS011;1444;49.166;7.312;2024-02-21T12:26:20;3.23;;;2.60;;
2872;SDS011;1444;49.166;7.312;2024-02-21T12:28:47;14.30;;;4.13;;
2872;SDS011;1444;49.166;7.312;2024-02-21T12:31:15;8.90;;;2.77;;
2872;SDS011;1444;49.166;7.312;2024-02-21T12:33:42;12.73;;;3.00;;
2872;SDS011;1444;49.166;7.312;2024-02-21T12:36:09;5.23;;;3.13;;
2872;SDS011;1444;49.166;7.312;2024-02-21T12:38:36;7.83;;;4.20;;
2872;SDS011;1444;49.166;7.312;2024-02-21T12:41:03;15.33;;;3.67;;
2872;SDS011;1444;49.166;7.312;2024-02-21T12:43:30;14.93;;;4.13;;
2872;SDS011;1444;49.166;7.312;2024-02-21T12:45:58;7.40;;;3.40;;
2872;SDS011;1444;49.166;7.312;2024-02-21T12:48:26;6.13;;;2.67;;
2872;SDS011;1444;49.166;7.312;2024-02-21T12:50:53;5.80;;;3.47;;
2872;SDS011;1444;49.166;7.312;2024-02-21T12:53:20;5.60;;;3.07;;
2872;SDS011;1444;49.166;7.312;2024-02-21T12:55:48;7.03;;;3.40;;
2872;SDS011;1444;49.166;7.312;2024-02-21T12:58:15;3.70;;;2.57;;
2872;SDS011;1444;49.166;7.312;2024-02-21T13:00:42;4.17;;;3.20;;
2872;SDS011;1444;49.166;7.312;2024-02-21T13:03:09;9.40;;;3.00;;
2872;SDS011;1444;49.166;7.312;2024-02-21T13:05:38;4.20;;;2.33;;
2872;SDS011;1444;49.166;7.312;2024-02-21T13:08:05;10.20;;;3.80;;
2872;SDS011;1444;49.166;7.312;2024-02-21T13:10:32;8.63;;;3.53;;
2872;SDS011;1444;49.166;7.312;2024-02-21T13:13:00;9.20;;;4.00;;
2872;SDS011;1444;49.166;7.312;2024-02-21T13:15:27;9.50;;;3.73;;
2872;SDS011;1444;49.166;7.312;2024-02-21T13:17:54;8.83;;;3.20;;
2872;SDS011;1444;49.166;7.312;2024-02-21T13:20:22;8.83;;;3.87;;
2872;SDS011;1444;49.166;7.312;2024-02-21T13:22:50;8.20;;;3.40;;
2872;SDS011;1444;49.166;7.312;2024-02-21T13:25:17;11.90;;;4.50;;
2872;SDS011;1444;49.166;7.312;2024-02-21T13:27:46;4.23;;;2.50;;
2872;SDS011;1444;49.166;7.312;2024-02-21T13:30:13;5.83;;;2.00;;
2872;SDS011;1444;49.166;7.312;2024-02-21T13:32:40;10.73;;;3.37;;
2872;SDS011;1444;49.166;7.312;2024-02-21T13:35:08;6.93;;;3.50;;
2872;SDS011;1444;49.166;7.312;2024-02-21T13:37:36;13.73;;;3.90;;
2872;SDS011;1444;49.166;7.312;2024-02-21T13:40:05;19.23;;;3.90;;
2872;SDS011;1444;49.166;7.312;2024-02-21T13:42:34;18.63;;;3.70;;
2872;SDS011;1444;49.166;7.312;2024-02-21T13:45:00;5.13;;;2.93;;
2872;SDS011;1444;49.166;7.312;2024-02-21T13:47:28;9.57;;;3.87;;
2872;SDS011;1444;49.166;7.312;2024-02-21T13:49:54;9.43;;;2.50;;
2872;SDS011;1444;49.166;7.312;2024-02-21T13:52:21;12.00;;;3.17;;
2872;SDS011;1444;49.166;7.312;2024-02-21T13:54:51;3.80;;;2.83;;
2872;SDS011;1444;49.166;7.312;2024-02-21T13:57:19;10.63;;;3.20;;
2872;SDS011;1444;49.166;7.312;2024-02-21T13:59:46;4.03;;;3.50;;
2872;SDS011;1444;49.166;7.312;2024-02-21T14:02:13;8.80;;;3.83;;
2872;SDS011;1444;49.166;7.312;2024-02-21T14:04:40;8.53;;;2.90;;
2872;SDS011;1444;49.166;7.312;2024-02-21T14:07:07;7.03;;;3.17;;
2872;SDS011;1444;49.166;7.312;2024-02-21T14:09:34;9.20;;;3.40;;
2872;SDS011;1444;49.166;7.312;2024-02-21T14:12:02;9.33;;;3.20;;
2872;SDS011;1444;49.166;7.312;2024-02-21T14:14:34;10.20;;;3.50;;
2872;SDS011;1444;49.166;7.312;2024-02-21T14:17:01;16.53;;;4.03;;
2872;SDS011;1444;49.166;7.312;2024-02-21T14:19:28;8.40;;;3.20;;
2872;SDS011;1444;49.166;7.312;2024-02-21T14:21:55;9.23;;;3.50;;
2872;SDS011;1444;49.166;7.312;2024-02-21T14:24:22;12.50;;;3.73;;
2872;SDS011;1444;49.166;7.312;2024-02-21T14:26:49;8.63;;;3.80;;
2872;SDS011;1444;49.166;7.312;2024-02-21T14:29:16;5.90;;;4.37;;
2872;SDS011;1444;49.166;7.312;2024-02-21T14:31:44;6.00;;;3.90;;
2872;SDS011;1444;49.166;7.312;2024-02-21T14:34:11;13.57;;;3.10;;
2872;SDS011;1444;49.166;7.312;2024-02-21T14:36:37;18.53;;;3.43;;
2872;SDS011;1444;49.166;7.312;2024-02-21T14:39:05;5.03;;;2.43;;
2872;SDS011;1444;49.166;7.312;2024-02-21T14:41:32;4.93;;;3.10;;
2872;SDS011;1444;49.166;7.312;2024-02-21T14:44:00;6.93;;;3.47;;
2872;SDS011;1444;49.166;7.312;2024-02-21T14:46:28;6.03;;;3.80;;
2872;SDS011;1444;49.166;7.312;2024-02-21T14:48:57;5.53;;;2.50;;
2872;SDS011;1444;49.166;7.312;2024-02-21T14:51:23;15.30;;;3.70;;
2872;SDS011;1444;49.166;7.312;2024-02-21T14:53:50;5.87;;;3.40;;
2872;SDS011;1444;49.166;7.312;2024-02-21T14:56:17;7.30;;;3.47;;
2872;SDS011;1444;49.166;7.312;2024-02-21T14:58:44;6.03;;;3.83;;
2872;SDS011;1444;49.166;7.312;2024-02-21T15:01:12;8.80;;;3.00;;
2872;SDS011;1444;49.166;7.312;2024-02-21T15:03:39;5.83;;;2.33;;
2872;SDS011;1444;49.166;7.312;2024-02-21T15:06:07;5.00;;;3.00;;
2872;SDS011;1444;49.166;7.312;2024-02-21T15:08:34;5.10;;;3.30;;